createdAt,value
2022-11-08T00:00:13.055Z,18.00
2022-11-08T00:02:41.236Z,17.53
2022-11-08T00:05:28.133Z,18.60
2022-11-08T00:08:13.985Z,27.77
2022-11-08T00:10:59.721Z,32.17
2022-11-08T00:13:45.191Z,23.37
2022-11-08T00:16:13.202Z,21.73
2022-11-08T00:18:41.235Z,20.33
2022-11-08T00:21:10.609Z,17.70
2022-11-08T00:23:38.607Z,17.73
2022-11-08T00:26:06.896Z,17.23
2022-11-08T00:28:34.937Z,17.43
2022-11-08T00:31:07.024Z,17.10
2022-11-08T00:33:35.075Z,16.57
2022-11-08T00:36:03.974Z,17.47
2022-11-08T00:38:33.342Z,17.77
2022-11-08T00:41:01.414Z,17.33
2022-11-08T00:43:29.435Z,16.33
2022-11-08T00:45:57.438Z,18.13
2022-11-08T00:48:25.477Z,24.40
2022-11-08T00:50:53.638Z,18.57
2022-11-08T00:53:21.634Z,16.57
2022-11-08T00:55:59.041Z,16.90
2022-11-08T00:58:28.479Z,15.63
2022-11-08T01:00:57.060Z,16.60
2022-11-08T01:03:26.039Z,14.93
2022-11-08T01:05:55.481Z,14.50
2022-11-08T01:08:24.548Z,15.03
2022-11-08T01:10:54.023Z,15.30
2022-11-08T01:13:22.337Z,14.33
2022-11-08T01:15:50.808Z,15.23
2022-11-08T01:18:19.832Z,15.07
2022-11-08T01:20:49.912Z,14.77
2022-11-08T01:23:19.152Z,13.90
2022-11-08T01:25:48.884Z,15.27
2022-11-08T01:28:19.052Z,14.17
2022-11-08T01:30:47.671Z,14.10
2022-11-08T01:33:16.436Z,14.53
2022-11-08T01:35:45.773Z,14.27
2022-11-08T01:38:13.947Z,14.83
2022-11-08T01:40:45.915Z,14.60
2022-11-08T01:43:43.385Z,13.63
2022-11-08T01:46:33.302Z,14.63
2022-11-08T01:49:22.831Z,14.07
2022-11-08T01:51:58.723Z,14.17
2022-11-08T01:54:33.508Z,13.63
2022-11-08T01:57:05.184Z,13.83
2022-11-08T01:59:37.098Z,14.00
2022-11-08T02:02:06.141Z,13.07
2022-11-08T02:04:34.865Z,14.43
2022-11-08T02:07:03.666Z,13.20
2022-11-08T02:09:32.653Z,12.80
2022-11-08T02:12:01.440Z,13.03
2022-11-08T02:14:29.691Z,13.10
2022-11-08T02:16:59.098Z,14.10
2022-11-08T02:19:35.053Z,13.80
2022-11-08T02:22:09.330Z,13.07
2022-11-08T02:24:38.929Z,14.10
2022-11-08T02:27:06.884Z,14.07
2022-11-08T02:29:36.854Z,13.17
2022-11-08T02:32:06.172Z,14.03
2022-11-08T02:34:37.575Z,13.67
2022-11-08T02:37:06.910Z,13.03
2022-11-08T02:39:35.109Z,13.33
2022-11-08T02:42:04.760Z,13.13
2022-11-08T02:44:32.759Z,12.73
2022-11-08T02:47:00.843Z,13.57
2022-11-08T02:49:28.896Z,13.47
2022-11-08T02:51:56.987Z,12.80
2022-11-08T02:54:25.016Z,13.57
2022-11-08T02:56:53.048Z,12.97
2022-11-08T02:59:22.447Z,12.83
2022-11-08T03:01:50.518Z,13.97
2022-11-08T03:04:18.597Z,12.43
2022-11-08T03:06:46.930Z,13.20
2022-11-08T03:09:14.934Z,13.57
2022-11-08T03:11:43.189Z,13.20
2022-11-08T03:14:11.275Z,12.67
2022-11-08T03:16:40.666Z,13.33
2022-11-08T03:19:08.645Z,13.57
2022-11-08T03:21:37.824Z,13.97
2022-11-08T03:24:06.297Z,13.67
2022-11-08T03:26:34.371Z,12.30
2022-11-08T03:29:02.343Z,13.00
2022-11-08T03:31:30.302Z,13.40
2022-11-08T03:33:59.632Z,13.17
2022-11-08T03:36:27.577Z,12.87
2022-11-08T03:38:55.540Z,14.40
2022-11-08T03:41:23.524Z,12.73
2022-11-08T03:43:51.504Z,12.90
2022-11-08T03:46:19.538Z,13.97
2022-11-08T03:48:47.519Z,13.57
2022-11-08T03:51:16.885Z,13.23
2022-11-08T03:53:44.831Z,13.03
2022-11-08T03:56:12.862Z,13.73
2022-11-08T03:58:40.848Z,12.57
2022-11-08T04:01:09.470Z,14.33
2022-11-08T04:03:37.480Z,13.63
2022-11-08T04:06:05.675Z,13.00
2022-11-08T04:08:35.046Z,14.10
2022-11-08T04:11:23.482Z,13.43
2022-11-08T04:14:09.297Z,13.33
2022-11-08T04:16:37.488Z,13.07
2022-11-08T04:19:23.293Z,13.00
2022-11-08T04:21:53.147Z,12.30
2022-11-08T04:24:22.927Z,13.40
2022-11-08T04:26:50.972Z,12.93
2022-11-08T04:29:19.011Z,13.27
2022-11-08T04:31:46.991Z,13.13
2022-11-08T04:34:14.968Z,13.03
2022-11-08T04:36:43.003Z,13.00
2022-11-08T04:39:11.049Z,13.27
2022-11-08T04:41:40.435Z,12.90
2022-11-08T04:44:08.632Z,12.53
2022-11-08T04:46:36.675Z,12.80
2022-11-08T04:49:04.815Z,13.20
2022-11-08T04:51:34.199Z,13.63
2022-11-08T04:54:05.033Z,12.87
2022-11-08T04:56:33.333Z,13.37
2022-11-08T04:59:02.746Z,12.90
2022-11-08T05:01:32.463Z,13.50
2022-11-08T05:04:00.534Z,12.40
2022-11-08T05:06:30.537Z,12.60
2022-11-08T05:09:00.359Z,13.00
2022-11-08T05:11:30.382Z,13.27
2022-11-08T05:13:58.992Z,12.70
2022-11-08T05:16:30.615Z,13.00
2022-11-08T05:18:58.924Z,14.10
2022-11-08T05:21:44.716Z,12.70
2022-11-08T05:24:14.601Z,14.00
2022-11-08T05:26:45.273Z,13.97
2022-11-08T05:29:15.284Z,13.93
2022-11-08T05:31:44.704Z,13.70
2022-11-08T05:34:12.728Z,13.57
2022-11-08T05:36:40.746Z,13.57
2022-11-08T05:39:08.949Z,13.43
2022-11-08T05:41:37.039Z,13.70
2022-11-08T05:44:05.224Z,14.60
2022-11-08T05:46:34.300Z,14.10
2022-11-08T05:49:03.903Z,14.07
2022-11-08T05:51:33.766Z,14.43
2022-11-08T05:54:01.805Z,14.67
2022-11-08T05:56:30.058Z,14.97
2022-11-08T05:58:58.398Z,15.40
2022-11-08T06:01:26.590Z,15.60
2022-11-08T06:03:55.229Z,14.80
2022-11-08T06:06:24.730Z,16.07
2022-11-08T06:08:54.683Z,15.87
2022-11-08T06:11:24.819Z,15.17
2022-11-08T06:13:53.976Z,15.87
2022-11-08T06:16:23.464Z,17.33
2022-11-08T06:18:51.499Z,14.83
2022-11-08T06:21:21.247Z,16.90
2022-11-08T06:23:53.824Z,15.17
2022-11-08T06:26:21.892Z,15.17
2022-11-08T06:28:49.851Z,14.57
2022-11-08T06:31:17.978Z,14.37
2022-11-08T06:33:46.705Z,14.30
2022-11-08T06:36:14.695Z,14.50
2022-11-08T06:38:42.684Z,14.43
2022-11-08T06:41:18.406Z,14.90
2022-11-08T06:43:46.402Z,15.97
2022-11-08T06:46:14.405Z,15.03
2022-11-08T06:48:42.646Z,16.57
2022-11-08T06:51:10.617Z,15.03
2022-11-08T06:53:38.703Z,15.63
2022-11-08T06:56:06.914Z,15.70
2022-11-08T06:58:36.292Z,15.40
2022-11-08T07:01:05.634Z,15.13
2022-11-08T07:03:34.384Z,14.97
2022-11-08T07:06:03.884Z,15.03
2022-11-08T07:08:32.669Z,14.93
2022-11-08T07:11:01.262Z,15.90
2022-11-08T07:13:29.355Z,16.07
2022-11-08T07:16:00.983Z,15.63
2022-11-08T07:18:29.838Z,16.17
2022-11-08T07:21:01.237Z,14.33
2022-11-08T07:23:29.648Z,14.67
2022-11-08T07:25:57.677Z,13.90
2022-11-08T07:28:25.790Z,12.80
2022-11-08T07:31:01.380Z,15.40
2022-11-08T07:33:29.989Z,13.93
2022-11-08T07:35:58.362Z,13.40
2022-11-08T07:38:27.113Z,13.87
2022-11-08T07:40:58.170Z,13.67
2022-11-08T07:43:27.576Z,13.47
2022-11-08T07:45:57.463Z,14.40
2022-11-08T07:48:27.725Z,14.20
2022-11-08T07:50:56.424Z,14.50
2022-11-08T07:53:24.896Z,13.60
2022-11-08T07:55:53.350Z,12.90
2022-11-08T07:58:21.345Z,12.60
2022-11-08T08:00:50.305Z,13.17
2022-11-08T08:03:19.553Z,12.90
2022-11-08T08:05:59.562Z,12.50
2022-11-08T08:08:30.007Z,12.60
2022-11-08T08:11:00.216Z,12.60
2022-11-08T08:13:28.279Z,12.37
2022-11-08T08:16:00.133Z,12.17
2022-11-08T08:18:28.560Z,11.67
2022-11-08T08:20:57.996Z,11.20
2022-11-08T08:23:26.126Z,11.37
2022-11-08T08:25:54.477Z,11.13
2022-11-08T08:28:22.874Z,10.63
2022-11-08T08:30:50.944Z,10.65
2022-11-08T08:33:28.806Z,11.00
2022-11-08T08:36:01.295Z,9.70
2022-11-08T08:38:30.509Z,9.90
2022-11-08T08:40:58.980Z,10.57
2022-11-08T08:43:28.624Z,10.13
2022-11-08T08:45:59.929Z,9.47
2022-11-08T08:48:28.150Z,10.18
2022-11-08T08:50:56.834Z,9.37
2022-11-08T08:53:26.718Z,10.05
2022-11-08T08:55:54.713Z,8.85
2022-11-08T08:58:23.466Z,9.20
2022-11-08T09:03:39.515Z,8.63
2022-11-08T09:06:07.762Z,8.55
2022-11-08T09:08:37.366Z,8.77
2022-11-08T09:11:06.012Z,9.02
2022-11-08T09:13:34.051Z,8.82
2022-11-08T09:16:03.701Z,8.35
2022-11-08T09:18:32.268Z,8.02
2022-11-08T09:21:01.038Z,8.65
2022-11-08T09:23:29.246Z,7.50
2022-11-08T09:26:02.850Z,8.50
2022-11-08T09:28:32.005Z,8.77
2022-11-08T09:31:05.715Z,8.02
2022-11-08T09:33:34.190Z,7.50
2022-11-08T09:36:02.816Z,7.55
2022-11-08T09:38:31.559Z,8.77
2022-11-08T09:41:24.102Z,7.18
2022-11-08T09:44:05.769Z,7.65
2022-11-08T09:46:42.196Z,7.32
2022-11-08T09:49:16.613Z,7.78
2022-11-08T09:51:45.135Z,6.95
2022-11-08T09:54:21.490Z,6.50
2022-11-08T09:56:54.351Z,7.20
2022-11-08T09:59:35.883Z,6.97
2022-11-08T10:02:05.028Z,7.38
2022-11-08T10:04:36.064Z,7.18
2022-11-08T10:07:21.890Z,7.05
2022-11-08T10:10:09.848Z,7.13
2022-11-08T10:12:45.081Z,6.55
2022-11-08T10:15:22.603Z,6.93
2022-11-08T10:18:16.153Z,7.03
2022-11-08T10:20:57.405Z,6.20
2022-11-08T10:23:36.851Z,7.43
2022-11-08T10:26:11.533Z,7.85
2022-11-08T10:28:44.928Z,6.18
2022-11-08T10:31:14.612Z,6.43
2022-11-08T10:33:48.749Z,6.03
2022-11-08T10:36:23.490Z,6.53
2022-11-08T10:39:00.862Z,6.22
2022-11-08T10:41:39.576Z,5.90
2022-11-08T10:44:15.354Z,6.43
2022-11-08T10:46:45.454Z,5.88
2022-11-08T10:49:17.708Z,6.65
2022-11-08T10:51:47.028Z,5.22
2022-11-08T10:54:44.042Z,6.18
2022-11-08T10:57:13.819Z,6.22
2022-11-08T10:59:44.211Z,6.78
2022-11-08T11:02:34.946Z,5.20
2022-11-08T11:05:25.326Z,6.03
2022-11-08T11:08:06.561Z,5.57
2022-11-08T11:10:36.269Z,5.80
2022-11-08T11:13:10.890Z,5.38
2022-11-08T11:15:47.457Z,5.03
2022-11-08T11:18:27.282Z,5.47
2022-11-08T11:21:08.253Z,4.90
2022-11-08T11:23:39.612Z,5.25
2022-11-08T11:26:08.879Z,5.43
2022-11-08T11:28:37.201Z,4.72
2022-11-08T11:31:18.233Z,5.18
2022-11-08T11:33:47.550Z,5.75
2022-11-08T11:36:20.493Z,5.63
2022-11-08T11:38:53.810Z,6.10
2022-11-08T11:41:29.181Z,4.93
2022-11-08T11:44:06.751Z,5.13
2022-11-08T11:46:44.875Z,5.03
2022-11-08T11:49:17.768Z,4.65
2022-11-08T11:51:45.868Z,5.18
2022-11-08T11:54:17.070Z,4.40
2022-11-08T11:56:53.222Z,5.00
2022-11-08T11:59:45.107Z,4.78
2022-11-08T12:02:42.663Z,4.65
2022-11-08T12:05:26.550Z,5.03
2022-11-08T12:08:09.184Z,4.78
2022-11-08T12:10:51.682Z,4.40
2022-11-08T12:13:27.612Z,4.10
2022-11-08T12:16:02.121Z,3.80
2022-11-08T12:18:56.847Z,3.90
2022-11-08T12:21:32.598Z,4.65
2022-11-08T12:24:12.050Z,4.40
2022-11-08T12:26:49.815Z,4.82
2022-11-08T12:29:24.636Z,3.78
2022-11-08T12:32:02.877Z,4.72
2022-11-08T12:34:43.377Z,4.28
2022-11-08T12:37:23.552Z,3.50
2022-11-08T12:39:58.564Z,3.90
2022-11-08T12:42:42.942Z,4.05
2022-11-08T12:45:26.865Z,3.58
2022-11-08T12:48:00.203Z,6.93
2022-11-08T12:50:35.534Z,4.20
2022-11-08T12:53:31.851Z,3.72
2022-11-08T12:56:01.611Z,3.83
2022-11-08T12:58:36.574Z,3.60
2022-11-08T13:01:09.502Z,5.18
2022-11-08T13:04:03.163Z,3.58
2022-11-08T13:06:45.592Z,3.00
2022-11-08T13:09:22.414Z,3.67
2022-11-08T13:12:01.309Z,3.08
2022-11-08T13:14:29.886Z,4.07
2022-11-08T13:17:17.351Z,4.35
2022-11-08T13:20:05.661Z,3.60
2022-11-08T13:23:01.714Z,3.60
2022-11-08T13:25:41.199Z,3.20
2022-11-08T13:28:44.407Z,3.55
2022-11-08T13:31:27.027Z,3.70
2022-11-08T13:34:42.922Z,3.58
2022-11-08T13:37:26.650Z,4.10
2022-11-08T13:40:23.770Z,3.58
2022-11-08T13:43:21.040Z,3.42
2022-11-08T13:45:49.840Z,3.72
2022-11-08T13:48:44.202Z,3.33
2022-11-08T13:51:30.885Z,3.67
2022-11-08T13:54:01.080Z,3.33
2022-11-08T13:56:50.077Z,3.70
2022-11-08T13:59:55.041Z,4.07
2022-11-08T14:02:34.200Z,3.90
2022-11-08T14:05:34.950Z,4.50
2022-11-08T14:08:29.285Z,4.20
2022-11-08T14:11:30.006Z,4.13
2022-11-08T14:14:19.006Z,3.92
2022-11-08T14:17:01.271Z,3.92
2022-11-08T14:19:33.087Z,3.97
2022-11-08T14:22:02.897Z,4.25
2022-11-08T14:24:36.597Z,4.30
2022-11-08T14:27:04.934Z,3.95
2022-11-08T14:29:34.359Z,4.07
2022-11-08T14:32:04.281Z,4.03
2022-11-08T14:34:34.571Z,5.30
2022-11-08T14:37:03.848Z,5.18
2022-11-08T14:39:34.357Z,14.98
2022-11-08T14:42:03.758Z,25.75
2022-11-08T14:44:32.077Z,26.70
2022-11-08T14:47:01.575Z,11.10
2022-11-08T14:49:33.330Z,9.13
2022-11-08T14:52:14.160Z,7.60
2022-11-08T14:54:44.904Z,5.80
2022-11-08T14:57:32.470Z,5.30
2022-11-08T15:00:03.364Z,5.72
2022-11-08T15:02:33.120Z,5.32
2022-11-08T15:05:01.195Z,5.78
2022-11-08T15:07:29.228Z,7.07
2022-11-08T15:09:57.277Z,6.90
2022-11-08T15:12:26.449Z,6.80
2022-11-08T15:14:58.710Z,6.50
2022-11-08T15:17:36.997Z,6.40
2022-11-08T15:20:23.628Z,5.50
2022-11-08T15:22:56.299Z,5.68
2022-11-08T15:25:30.072Z,5.65
2022-11-08T15:27:59.944Z,5.80
2022-11-08T15:30:38.804Z,5.50
2022-11-08T15:33:22.143Z,4.97
2022-11-08T15:35:50.793Z,6.47
2022-11-08T15:38:32.813Z,6.13
2022-11-08T15:41:03.585Z,6.25
2022-11-08T15:43:40.325Z,6.55
2022-11-08T15:46:27.566Z,6.85
2022-11-08T15:49:00.791Z,7.85
2022-11-08T15:51:28.779Z,7.18
2022-11-08T15:53:56.805Z,8.00
2022-11-08T15:56:24.812Z,8.25
2022-11-08T15:58:52.823Z,8.73
2022-11-08T16:01:22.951Z,7.40
2022-11-08T16:03:51.052Z,7.50
2022-11-08T16:06:20.421Z,7.68
2022-11-08T16:08:48.418Z,7.85
2022-11-08T16:11:21.654Z,8.73
2022-11-08T16:13:51.993Z,8.77
2022-11-08T16:16:20.035Z,8.07
2022-11-08T16:18:48.060Z,8.70
2022-11-08T16:21:16.427Z,10.23
2022-11-08T16:23:45.826Z,9.60
2022-11-08T16:26:17.381Z,9.27
2022-11-08T16:28:46.025Z,9.27
2022-11-08T16:31:15.523Z,9.13
2022-11-08T16:33:45.088Z,9.60
2022-11-08T16:36:18.729Z,9.90
2022-11-08T16:38:52.731Z,9.13
2022-11-08T16:41:21.370Z,9.45
2022-11-08T16:43:49.537Z,10.47
2022-11-08T16:46:20.292Z,9.52
2022-11-08T16:48:50.391Z,9.98
2022-11-08T16:51:19.947Z,10.65
2022-11-08T16:53:50.093Z,12.43
2022-11-08T16:56:18.550Z,12.07
2022-11-08T16:58:46.820Z,10.65
2022-11-08T17:01:17.137Z,10.73
2022-11-08T17:03:45.358Z,10.38
2022-11-08T17:06:17.958Z,10.25
2022-11-08T17:08:46.321Z,10.70
2022-11-08T17:11:18.336Z,11.15
2022-11-08T17:13:46.673Z,11.47
2022-11-08T17:16:15.776Z,11.13
2022-11-08T17:18:45.663Z,12.07
2022-11-08T17:21:43.248Z,11.80
2022-11-08T17:24:04.810Z,12.18
2022-11-08T17:26:34.138Z,11.63
2022-11-08T17:29:02.139Z,12.00
2022-11-08T17:31:30.122Z,12.00
2022-11-08T17:33:58.118Z,12.53
2022-11-08T17:36:26.101Z,13.70
2022-11-08T17:38:54.086Z,14.93
2022-11-08T17:41:22.125Z,15.50
2022-11-08T17:43:51.633Z,15.57
2022-11-08T17:46:19.608Z,14.87
2022-11-08T17:48:47.616Z,13.63
2022-11-08T17:51:15.738Z,13.70
2022-11-08T17:53:44.133Z,13.37
2022-11-08T17:56:13.105Z,13.47
2022-11-08T17:58:41.792Z,13.40
2022-11-08T18:01:11.297Z,18.17
2022-11-08T18:03:39.670Z,21.10
2022-11-08T18:06:11.417Z,24.70
2022-11-08T18:08:39.710Z,19.03
2022-11-08T18:11:08.025Z,17.00
2022-11-08T18:13:36.232Z,15.37
2022-11-08T18:16:08.534Z,15.90
2022-11-08T18:18:38.013Z,17.17
2022-11-08T18:21:06.501Z,18.83
2022-11-08T18:23:34.643Z,20.50
2022-11-08T18:26:02.660Z,21.17
2022-11-08T18:28:30.664Z,19.70
2022-11-08T18:31:05.897Z,18.90
2022-11-08T18:33:34.040Z,17.47
2022-11-08T18:36:06.137Z,18.67
2022-11-08T18:38:35.536Z,18.50
2022-11-08T18:41:03.788Z,19.60
2022-11-08T18:43:31.897Z,18.23
2022-11-08T18:46:04.011Z,18.50
2022-11-08T18:48:35.541Z,19.40
2022-11-08T18:51:05.651Z,19.20
2022-11-08T18:53:34.017Z,20.60
2022-11-08T18:56:02.337Z,18.97
2022-11-08T18:58:30.521Z,18.43
2022-11-08T19:00:59.251Z,18.03
2022-11-08T19:03:28.174Z,18.03
2022-11-08T19:05:56.439Z,18.40
2022-11-08T19:08:28.661Z,19.30
2022-11-08T19:10:58.750Z,19.37
2022-11-08T19:13:28.146Z,19.33
2022-11-08T19:16:00.041Z,18.67
2022-11-08T19:18:29.539Z,18.97
2022-11-08T19:20:58.561Z,19.50
2022-11-08T19:23:28.182Z,19.27
2022-11-08T19:25:57.984Z,19.00
2022-11-08T19:28:30.274Z,19.00
2022-11-08T19:31:01.391Z,20.30
2022-11-08T19:33:31.443Z,19.07
2022-11-08T19:36:03.139Z,20.40
2022-11-08T19:38:32.909Z,19.37
2022-11-08T19:41:03.104Z,19.47
2022-11-08T19:43:31.295Z,20.17
2022-11-08T19:46:03.546Z,19.80
2022-11-08T19:48:32.950Z,19.87
2022-11-08T19:51:02.935Z,21.27
2022-11-08T19:53:32.704Z,20.03
2022-11-08T19:56:01.697Z,20.60
2022-11-08T19:58:30.143Z,20.20
2022-11-08T20:00:58.299Z,20.67
2022-11-08T20:03:27.784Z,22.70
2022-11-08T20:05:56.143Z,22.37
2022-11-08T20:08:24.668Z,24.77
2022-11-08T20:10:54.118Z,25.20
2022-11-08T20:13:22.626Z,23.23
2022-11-08T20:15:50.938Z,21.23
2022-11-08T20:18:19.167Z,20.20
2022-11-08T20:20:47.643Z,20.73
2022-11-08T20:23:17.591Z,19.60
2022-11-08T20:25:45.608Z,19.23
2022-11-08T20:28:15.084Z,21.03
2022-11-08T20:30:43.170Z,20.30
2022-11-08T20:33:11.155Z,19.70
2022-11-08T20:35:39.807Z,20.53
2022-11-08T20:38:07.784Z,20.93
2022-11-08T20:40:38.408Z,20.53
2022-11-08T20:43:06.408Z,20.63
2022-11-08T20:45:39.465Z,20.23
2022-11-08T20:48:07.894Z,19.73
2022-11-08T20:50:39.184Z,19.03
2022-11-08T20:53:07.887Z,21.17
2022-11-08T20:55:35.878Z,19.43
2022-11-08T20:58:03.944Z,19.33
2022-11-08T21:00:57.335Z,19.50
2022-11-08T21:03:21.667Z,19.40
2022-11-08T21:05:54.519Z,18.77
2022-11-08T21:11:14.593Z,19.77
2022-11-08T21:13:44.683Z,18.97
2022-11-08T21:16:29.301Z,19.10
2022-11-08T21:19:00.160Z,19.53
2022-11-08T21:21:28.718Z,18.70
2022-11-08T21:23:56.933Z,19.33
2022-11-08T21:26:25.134Z,19.00
2022-11-08T21:28:53.364Z,19.23
2022-11-08T21:31:22.853Z,19.73
2022-11-08T21:33:51.057Z,19.10
2022-11-08T21:36:20.714Z,19.57
2022-11-08T21:38:48.828Z,19.90
2022-11-08T21:41:17.034Z,19.47
2022-11-08T21:43:45.886Z,19.57
2022-11-08T21:46:19.055Z,18.67
2022-11-08T21:48:47.947Z,19.90
2022-11-08T21:51:16.194Z,21.60
2022-11-08T21:53:54.065Z,20.57
2022-11-08T21:56:23.338Z,19.60
2022-11-08T21:58:51.494Z,19.43
2022-11-08T22:01:20.466Z,19.40
2022-11-08T22:03:49.624Z,19.60
2022-11-08T22:06:17.980Z,19.37
2022-11-08T22:08:47.495Z,19.03
2022-11-08T22:11:15.621Z,19.27
2022-11-08T22:13:43.746Z,19.57
2022-11-08T22:16:11.931Z,19.33
2022-11-08T22:19:03.733Z,18.00
2022-11-08T22:21:40.801Z,20.20
2022-11-08T22:24:17.211Z,21.57
2022-11-08T22:26:45.914Z,20.47
2022-11-08T22:29:14.278Z,19.70
2022-11-08T22:31:42.883Z,20.47
2022-11-08T22:34:11.902Z,20.37
2022-11-08T22:36:45.367Z,20.33
2022-11-08T22:39:18.165Z,19.70
2022-11-08T22:41:47.524Z,19.43
2022-11-08T22:44:16.190Z,19.77
2022-11-08T22:46:45.181Z,18.80
2022-11-08T22:49:14.324Z,19.30
2022-11-08T22:51:43.462Z,19.03
2022-11-08T22:54:12.068Z,18.63
2022-11-08T22:56:41.827Z,18.77
2022-11-08T22:59:10.704Z,18.10
2022-11-08T23:01:38.809Z,17.87
2022-11-08T23:04:11.061Z,18.60
2022-11-08T23:06:39.564Z,18.20
2022-11-08T23:09:08.024Z,18.90
2022-11-08T23:11:53.420Z,19.80
2022-11-08T23:14:40.375Z,17.83
2022-11-08T23:17:08.929Z,18.63
2022-11-08T23:19:54.336Z,18.53
2022-11-08T23:22:40.743Z,20.33
2022-11-08T23:25:09.556Z,19.00
2022-11-08T23:27:54.889Z,19.83
2022-11-08T23:30:42.027Z,18.93
2022-11-08T23:33:11.281Z,18.33
2022-11-08T23:35:59.429Z,19.83
2022-11-08T23:38:27.553Z,18.10
2022-11-08T23:41:16.812Z,18.17
2022-11-08T23:44:02.153Z,18.20
2022-11-08T23:46:31.544Z,19.10
2022-11-08T23:48:59.510Z,19.67
2022-11-08T23:51:27.526Z,18.47
2022-11-08T23:53:55.609Z,18.30
2022-11-08T23:56:24.861Z,18.03
2022-11-08T23:58:53.412Z,17.70
